createdAt,value
2023-05-12T00:01:09.315Z,17.77
2023-05-12T00:03:39.051Z,17.88
2023-05-12T00:06:07.848Z,21.02
2023-05-12T00:08:35.873Z,15.00
2023-05-12T00:11:04.109Z,19.58
2023-05-12T00:13:32.208Z,17.15
2023-05-12T00:16:00.257Z,19.63
2023-05-12T00:18:28.745Z,19.63
2023-05-12T00:20:56.998Z,15.63
2023-05-12T00:23:26.408Z,19.67
2023-05-12T00:25:54.267Z,19.75
2023-05-12T00:28:22.420Z,18.75
2023-05-12T00:30:50.580Z,22.13
2023-05-12T00:33:18.598Z,19.50
2023-05-12T00:35:46.724Z,13.57
2023-05-12T00:38:14.911Z,22.13
2023-05-12T00:40:42.963Z,16.60
2023-05-12T00:43:11.709Z,23.17
2023-05-12T00:45:39.965Z,20.20
2023-05-12T00:48:08.686Z,21.10
2023-05-12T00:50:37.103Z,19.30
2023-05-12T00:53:06.625Z,29.80
2023-05-12T00:55:34.604Z,15.07
2023-05-12T00:58:03.656Z,13.50
2023-05-12T01:00:32.364Z,33.80
2023-05-12T01:03:00.665Z,14.38
2023-05-12T01:05:42.666Z,12.93
2023-05-12T01:08:12.951Z,15.60
2023-05-12T01:10:45.050Z,13.45
2023-05-12T01:13:14.267Z,13.13
2023-05-12T01:15:47.048Z,13.52
2023-05-12T01:18:21.768Z,15.52
2023-05-12T01:20:51.317Z,15.25
2023-05-12T01:23:24.163Z,20.40
2023-05-12T01:25:55.253Z,12.77
2023-05-12T01:28:23.597Z,15.98
2023-05-12T01:30:51.800Z,17.58
2023-05-12T01:33:20.908Z,18.88
2023-05-12T01:35:48.820Z,18.35
2023-05-12T01:38:16.989Z,14.85
2023-05-12T01:40:45.272Z,18.95
2023-05-12T01:43:13.248Z,19.02
2023-05-12T01:45:41.202Z,16.73
2023-05-12T01:48:10.783Z,19.10
2023-05-12T01:50:39.273Z,19.23
2023-05-12T01:53:12.802Z,19.42
2023-05-12T01:55:41.033Z,23.65
2023-05-12T01:58:08.969Z,32.03
2023-05-12T02:00:37.231Z,17.83
2023-05-12T02:03:07.790Z,20.20
2023-05-12T02:05:35.806Z,16.98
2023-05-12T02:08:05.084Z,20.08
2023-05-12T02:10:33.493Z,14.63
2023-05-12T02:13:01.628Z,21.92
2023-05-12T02:15:31.454Z,19.90
2023-05-12T02:17:59.509Z,21.80
2023-05-12T02:20:30.583Z,19.17
2023-05-12T02:23:01.143Z,24.75
2023-05-12T02:25:32.681Z,21.98
2023-05-12T02:28:01.025Z,23.05
2023-05-12T02:30:29.201Z,24.55
2023-05-12T02:32:57.385Z,25.48
2023-05-12T02:35:25.505Z,32.78
2023-05-12T02:37:54.115Z,32.35
2023-05-12T02:40:22.470Z,15.82
2023-05-12T02:42:50.524Z,15.07
2023-05-12T02:45:18.680Z,9.77
2023-05-12T02:47:46.634Z,11.45
2023-05-12T02:50:15.388Z,12.18
2023-05-12T02:52:44.400Z,13.23
2023-05-12T02:55:12.536Z,15.40
2023-05-12T02:57:41.569Z,10.73
2023-05-12T03:00:10.847Z,14.48
2023-05-12T03:02:51.153Z,15.93
2023-05-12T03:05:19.542Z,11.82
2023-05-12T03:07:49.732Z,12.63
2023-05-12T03:10:19.193Z,14.05
2023-05-12T03:12:48.179Z,15.13
2023-05-12T03:15:16.760Z,16.52
2023-05-12T03:17:44.727Z,12.93
2023-05-12T03:20:13.532Z,12.35
2023-05-12T03:22:41.652Z,11.68
2023-05-12T03:25:11.650Z,18.23
2023-05-12T03:27:41.247Z,11.30
2023-05-12T03:30:11.130Z,12.50
2023-05-12T03:32:39.791Z,11.32
2023-05-12T03:35:11.702Z,15.98
2023-05-12T03:37:40.662Z,14.35
2023-05-12T03:40:13.119Z,13.75
2023-05-12T03:42:41.409Z,13.10
2023-05-12T03:45:10.482Z,13.27
2023-05-12T03:47:40.848Z,10.82
2023-05-12T03:50:10.470Z,11.35
2023-05-12T03:52:41.353Z,10.20
2023-05-12T03:55:10.561Z,9.25
2023-05-12T03:57:38.920Z,9.40
2023-05-12T04:00:08.095Z,14.27
2023-05-12T04:02:46.732Z,10.48
2023-05-12T04:05:15.566Z,8.70
2023-05-12T04:07:43.532Z,9.68
2023-05-12T04:10:13.212Z,11.57
2023-05-12T04:12:41.545Z,13.63
2023-05-12T04:15:10.964Z,14.05
2023-05-12T04:17:39.182Z,10.25
2023-05-12T04:20:08.650Z,10.60
2023-05-12T04:22:36.923Z,11.82
2023-05-12T04:25:05.909Z,16.13
2023-05-12T04:27:33.977Z,12.68
2023-05-12T04:30:02.814Z,13.20
2023-05-12T04:32:36.500Z,14.43
2023-05-12T04:35:05.331Z,6.38
2023-05-12T04:37:33.820Z,7.35
2023-05-12T04:40:03.137Z,5.47
2023-05-12T04:42:31.834Z,11.00
2023-05-12T04:45:00.065Z,5.78
2023-05-12T04:47:29.451Z,6.05
2023-05-12T04:49:57.875Z,9.88
2023-05-12T04:52:26.378Z,9.07
2023-05-12T04:54:55.029Z,7.30
2023-05-12T04:57:23.626Z,5.32
2023-05-12T04:59:52.271Z,5.78
2023-05-12T05:02:21.133Z,5.43
2023-05-12T05:04:50.296Z,10.25
2023-05-12T05:07:18.560Z,8.13
2023-05-12T05:09:46.613Z,6.53
2023-05-12T05:12:14.711Z,8.25
2023-05-12T05:14:43.936Z,6.32
2023-05-12T05:17:13.664Z,4.85
2023-05-12T05:19:54.943Z,7.38
2023-05-12T05:22:27.494Z,6.78
2023-05-12T05:24:56.390Z,9.63
2023-05-12T05:27:24.889Z,8.48
2023-05-12T05:29:54.503Z,11.25
2023-05-12T05:32:22.809Z,7.32
2023-05-12T05:34:51.029Z,5.47
2023-05-12T05:37:20.858Z,5.65
2023-05-12T05:39:48.745Z,4.20
2023-05-12T05:42:17.413Z,9.68
2023-05-12T05:44:45.786Z,6.28
2023-05-12T05:47:14.871Z,9.60
2023-05-12T05:49:43.213Z,6.78
2023-05-12T05:52:12.227Z,11.25
2023-05-12T05:54:40.389Z,11.20
2023-05-12T05:57:08.708Z,11.25
2023-05-12T05:59:37.158Z,6.28
2023-05-12T06:02:06.674Z,6.75
2023-05-12T06:04:35.850Z,6.10
2023-05-12T06:07:04.068Z,4.75
2023-05-12T06:09:32.509Z,13.45
2023-05-12T06:12:00.620Z,5.88
2023-05-12T06:14:28.735Z,6.38
2023-05-12T06:16:57.307Z,4.75
2023-05-12T06:19:25.945Z,5.60
2023-05-12T06:21:54.074Z,8.80
2023-05-12T06:24:22.074Z,6.65
2023-05-12T06:26:50.396Z,7.13
2023-05-12T06:29:18.883Z,7.40
2023-05-12T06:31:47.226Z,5.90
2023-05-12T06:34:17.273Z,4.65
2023-05-12T06:36:45.600Z,9.75
2023-05-12T06:39:13.903Z,8.15
2023-05-12T06:41:42.232Z,6.80
2023-05-12T06:44:20.757Z,5.30
2023-05-12T06:46:53.732Z,6.53
2023-05-12T06:49:21.901Z,5.35
2023-05-12T06:51:49.952Z,7.07
2023-05-12T06:54:18.036Z,5.68
2023-05-12T06:56:46.272Z,7.45
2023-05-12T06:59:14.472Z,5.55
2023-05-12T07:01:43.286Z,9.68
2023-05-12T07:04:11.648Z,5.40
2023-05-12T07:06:39.643Z,3.33
2023-05-12T07:09:07.732Z,5.00
2023-05-12T07:11:35.954Z,8.80
2023-05-12T07:14:04.065Z,7.75
2023-05-12T07:16:32.986Z,6.13
2023-05-12T07:19:01.133Z,5.47
2023-05-12T07:21:29.888Z,6.10
2023-05-12T07:23:58.076Z,6.10
2023-05-12T07:26:26.968Z,9.13
2023-05-12T07:28:55.445Z,6.05
2023-05-12T07:31:23.628Z,8.32
2023-05-12T07:33:51.976Z,5.97
2023-05-12T07:36:21.850Z,8.55
2023-05-12T07:38:50.410Z,5.65
2023-05-12T07:41:19.160Z,7.25
2023-05-12T07:43:47.334Z,4.65
2023-05-12T07:46:15.569Z,5.13
2023-05-12T07:48:44.100Z,3.20
2023-05-12T07:51:12.185Z,4.53
2023-05-12T07:53:40.985Z,11.77
2023-05-12T07:56:09.003Z,3.63
2023-05-12T07:58:37.414Z,4.40
2023-05-12T08:01:06.922Z,5.78
2023-05-12T08:03:36.463Z,6.47
2023-05-12T08:06:07.438Z,5.22
2023-05-12T08:08:36.673Z,3.92
2023-05-12T08:11:05.027Z,2.60
2023-05-12T08:13:33.113Z,9.68
2023-05-12T08:16:01.553Z,3.05
2023-05-12T08:18:29.804Z,10.95
2023-05-12T08:20:57.963Z,6.72
2023-05-12T08:23:26.206Z,15.98
2023-05-12T08:25:54.903Z,7.28
2023-05-12T08:28:23.050Z,4.47
2023-05-12T08:30:51.557Z,4.65
2023-05-12T08:33:19.833Z,4.03
2023-05-12T08:35:48.023Z,5.63
2023-05-12T08:38:17.005Z,4.13
2023-05-12T08:41:18.128Z,8.18
2023-05-12T08:43:51.782Z,5.25
2023-05-12T08:46:21.342Z,2.35
2023-05-12T08:48:52.560Z,8.23
2023-05-12T08:51:23.270Z,5.38
2023-05-12T08:53:53.541Z,5.65
2023-05-12T08:58:56.535Z,3.53
2023-05-12T09:01:26.279Z,6.88
2023-05-12T09:03:54.661Z,6.85
2023-05-12T09:06:22.855Z,19.27
2023-05-12T09:08:51.426Z,4.95
2023-05-12T09:11:22.101Z,6.18
2023-05-12T09:14:08.866Z,4.00
2023-05-12T09:16:45.563Z,2.78
2023-05-12T09:19:18.781Z,11.48
2023-05-12T09:21:47.949Z,8.00
2023-05-12T09:24:16.253Z,4.47
2023-05-12T09:26:56.105Z,4.18
2023-05-12T09:29:31.846Z,3.50
2023-05-12T09:32:04.365Z,6.05
2023-05-12T09:34:37.222Z,5.70
2023-05-12T09:37:07.328Z,4.60
2023-05-12T09:39:36.824Z,4.47
2023-05-12T09:42:12.430Z,4.03
2023-05-12T09:44:41.462Z,18.23
2023-05-12T09:47:10.712Z,5.25
2023-05-12T09:49:38.893Z,12.32
2023-05-12T09:52:07.007Z,3.55
2023-05-12T09:54:35.115Z,4.85
2023-05-12T09:57:07.545Z,6.75
2023-05-12T09:59:39.016Z,5.10
2023-05-12T10:02:09.936Z,6.15
2023-05-12T10:04:49.358Z,7.97
2023-05-12T10:07:18.896Z,5.60
2023-05-12T10:09:49.214Z,3.40
2023-05-12T10:12:17.851Z,6.75
2023-05-12T10:14:47.899Z,2.67
2023-05-12T10:17:17.164Z,3.58
2023-05-12T10:19:46.949Z,13.57
2023-05-12T10:22:17.357Z,24.35
2023-05-12T10:24:47.166Z,7.50
2023-05-12T10:27:17.338Z,11.65
2023-05-12T10:29:46.978Z,3.45
2023-05-12T10:32:15.717Z,5.95
2023-05-12T10:34:44.341Z,2.33
2023-05-12T10:37:13.184Z,12.07
2023-05-12T10:39:49.938Z,9.07
2023-05-12T10:42:26.985Z,15.68
2023-05-12T10:44:56.918Z,5.93
2023-05-12T10:47:38.071Z,7.55
2023-05-12T10:50:07.974Z,5.88
2023-05-12T10:52:36.149Z,3.40
2023-05-12T10:55:05.396Z,10.63
2023-05-12T10:57:34.666Z,3.78
2023-05-12T11:00:04.964Z,2.47
2023-05-12T11:02:36.992Z,9.30
2023-05-12T11:05:13.081Z,6.47
2023-05-12T11:07:50.765Z,4.10
2023-05-12T11:10:20.354Z,3.25
2023-05-12T11:12:50.845Z,4.17
2023-05-12T11:15:19.351Z,4.03
2023-05-12T11:17:48.393Z,3.22
2023-05-12T11:20:25.416Z,5.95
2023-05-12T11:22:54.950Z,8.77
2023-05-12T11:25:23.505Z,5.50
2023-05-12T11:27:52.338Z,3.67
2023-05-12T11:30:20.549Z,5.28
2023-05-12T11:32:49.117Z,6.75
2023-05-12T11:35:19.966Z,7.90
2023-05-12T11:37:48.378Z,5.03
2023-05-12T11:40:21.999Z,3.08
2023-05-12T11:42:53.073Z,4.88
2023-05-12T11:45:25.031Z,3.85
2023-05-12T11:48:05.242Z,5.90
2023-05-12T11:50:33.559Z,3.33
2023-05-12T11:53:01.856Z,8.93
2023-05-12T11:55:30.907Z,3.63
2023-05-12T11:58:03.809Z,3.28
2023-05-12T12:00:35.998Z,5.03
2023-05-12T12:03:12.857Z,3.25
2023-05-12T12:05:45.744Z,5.93
2023-05-12T12:08:16.418Z,3.08
2023-05-12T12:10:47.809Z,9.00
2023-05-12T12:15:53.819Z,2.42
2023-05-12T12:18:22.202Z,5.07
2023-05-12T12:20:50.684Z,11.00
2023-05-12T12:23:19.607Z,3.13
2023-05-12T12:25:47.675Z,3.60
2023-05-12T12:28:16.131Z,2.63
2023-05-12T12:30:44.845Z,3.03
2023-05-12T12:33:13.149Z,4.82
2023-05-12T12:35:41.915Z,2.78
2023-05-12T12:38:10.835Z,7.40
2023-05-12T12:40:38.795Z,6.78
2023-05-12T12:43:07.354Z,7.50
2023-05-12T12:45:36.531Z,6.50
2023-05-12T12:48:07.177Z,3.50
2023-05-12T12:50:37.740Z,2.83
2023-05-12T12:53:06.732Z,8.73
2023-05-12T12:55:34.759Z,5.10
2023-05-12T12:58:03.551Z,9.50
2023-05-12T13:00:31.923Z,4.80
2023-05-12T13:03:00.813Z,10.15
2023-05-12T13:05:29.971Z,5.20
2023-05-12T13:07:58.194Z,6.60
2023-05-12T13:10:27.011Z,6.55
2023-05-12T13:12:55.259Z,4.75
2023-05-12T13:15:23.840Z,8.00
2023-05-12T13:17:52.436Z,5.30
2023-05-12T13:20:20.771Z,9.93
2023-05-12T13:22:49.723Z,5.68
2023-05-12T13:25:17.838Z,5.20
2023-05-12T13:27:45.991Z,7.63
2023-05-12T13:30:14.263Z,6.10
2023-05-12T13:32:43.637Z,4.25
2023-05-12T13:35:11.855Z,11.13
2023-05-12T13:37:39.967Z,8.77
2023-05-12T13:40:09.420Z,5.75
2023-05-12T13:42:37.901Z,7.45
2023-05-12T13:45:07.133Z,5.20
2023-05-12T13:47:36.185Z,4.20
2023-05-12T13:50:05.358Z,5.72
2023-05-12T13:52:33.848Z,4.93
2023-05-12T13:55:01.841Z,3.67
2023-05-12T13:57:30.125Z,1.92
2023-05-12T13:59:58.614Z,3.35
2023-05-12T14:02:27.199Z,3.25
2023-05-12T14:04:56.662Z,4.70
2023-05-12T14:07:25.482Z,5.32
2023-05-12T14:09:53.759Z,2.85
2023-05-12T14:12:22.582Z,4.90
2023-05-12T14:14:50.708Z,3.22
2023-05-12T14:17:18.792Z,5.45
2023-05-12T14:19:46.970Z,2.33
2023-05-12T14:22:25.444Z,9.27
2023-05-12T14:24:55.893Z,2.85
2023-05-12T14:27:24.215Z,4.38
2023-05-12T14:29:52.197Z,4.25
2023-05-12T14:32:20.529Z,7.72
2023-05-12T14:34:48.457Z,7.75
2023-05-12T14:37:16.417Z,6.07
2023-05-12T14:39:44.793Z,11.85
2023-05-12T14:42:12.938Z,5.93
2023-05-12T14:44:41.126Z,10.25
2023-05-12T14:47:09.524Z,4.00
2023-05-12T14:49:37.538Z,6.28
2023-05-12T14:52:06.866Z,5.47
2023-05-12T14:54:34.986Z,5.78
2023-05-12T14:57:04.134Z,7.60
2023-05-12T14:59:32.186Z,4.75
2023-05-12T15:02:00.379Z,5.60
2023-05-12T15:04:28.544Z,3.88
2023-05-12T15:06:56.554Z,8.45
2023-05-12T15:09:24.667Z,5.25
2023-05-12T15:11:52.803Z,2.63
2023-05-12T15:14:20.816Z,5.45
2023-05-12T15:16:49.323Z,8.75
2023-05-12T15:19:17.764Z,5.32
2023-05-12T15:21:45.844Z,6.75
2023-05-12T15:24:14.010Z,3.00
2023-05-12T15:26:42.093Z,4.75
2023-05-12T15:29:10.125Z,8.23
2023-05-12T15:31:38.392Z,6.25
2023-05-12T15:34:07.336Z,4.95
2023-05-12T15:36:35.469Z,3.05
2023-05-12T15:39:04.317Z,6.20
2023-05-12T15:41:32.893Z,7.57
2023-05-12T15:44:00.894Z,5.45
2023-05-12T15:46:29.415Z,4.88
2023-05-12T15:48:58.595Z,3.67
2023-05-12T15:51:27.118Z,7.28
2023-05-12T15:53:55.786Z,9.50
2023-05-12T15:56:24.044Z,6.63
2023-05-12T15:58:52.890Z,2.70
2023-05-12T16:01:21.408Z,6.10
2023-05-12T16:03:54.186Z,8.93
2023-05-12T16:06:22.673Z,7.45
2023-05-12T16:08:50.877Z,10.73
2023-05-12T16:11:19.117Z,5.13
2023-05-12T16:13:47.345Z,7.05
2023-05-12T16:16:16.045Z,3.92
2023-05-12T16:18:44.219Z,5.43
2023-05-12T16:21:12.961Z,4.85
2023-05-12T16:23:41.317Z,5.57
2023-05-12T16:26:09.855Z,3.38
2023-05-12T16:28:37.894Z,5.20
2023-05-12T16:31:05.972Z,8.90
2023-05-12T16:33:34.327Z,7.15
2023-05-12T16:36:02.580Z,7.80
2023-05-12T16:38:32.490Z,10.02
2023-05-12T16:41:00.968Z,12.20
2023-05-12T16:43:28.970Z,9.55
2023-05-12T16:46:03.305Z,8.10
2023-05-12T16:48:34.892Z,8.80
2023-05-12T16:51:11.507Z,12.60
2023-05-12T16:53:40.477Z,9.05
2023-05-12T16:56:08.837Z,16.73
2023-05-12T16:58:37.732Z,7.88
2023-05-12T17:01:06.048Z,8.43
2023-05-12T17:03:34.430Z,5.65
2023-05-12T17:06:02.537Z,5.43
2023-05-12T17:08:30.854Z,3.30
2023-05-12T17:10:58.733Z,6.95
2023-05-12T17:13:27.197Z,3.58
2023-05-12T17:15:55.217Z,7.38
2023-05-12T17:18:24.926Z,10.35
2023-05-12T17:20:53.174Z,5.80
2023-05-12T17:23:21.842Z,8.48
2023-05-12T17:25:49.954Z,7.72
2023-05-12T17:28:18.119Z,22.95
2023-05-12T17:30:46.696Z,5.32
2023-05-12T17:33:16.626Z,6.47
2023-05-12T17:35:53.592Z,5.50
2023-05-12T17:38:31.801Z,7.22
2023-05-12T17:41:00.957Z,7.80
2023-05-12T17:43:30.049Z,6.60
2023-05-12T17:45:58.689Z,7.68
2023-05-12T17:48:27.249Z,9.02
2023-05-12T17:50:55.397Z,12.07
2023-05-12T17:53:23.570Z,5.30
2023-05-12T17:55:53.047Z,9.50
2023-05-12T17:58:21.303Z,5.57
2023-05-12T18:00:49.731Z,5.22
2023-05-12T18:03:23.499Z,5.35
2023-05-12T18:05:54.237Z,9.90
2023-05-12T18:08:22.569Z,8.60
2023-05-12T18:10:51.246Z,6.30
2023-05-12T18:13:19.617Z,9.80
2023-05-12T18:15:50.306Z,6.20
2023-05-12T18:18:19.257Z,10.73
2023-05-12T18:20:48.806Z,9.00
2023-05-12T18:23:18.603Z,9.48
2023-05-12T18:25:48.363Z,7.50
2023-05-12T18:28:16.776Z,9.02
2023-05-12T18:30:45.547Z,7.95
2023-05-12T18:33:14.239Z,6.50
2023-05-12T18:35:43.234Z,9.05
2023-05-12T18:38:11.587Z,8.93
2023-05-12T18:40:39.708Z,9.73
2023-05-12T18:43:08.324Z,13.45
2023-05-12T18:45:37.808Z,9.60
2023-05-12T18:48:07.245Z,9.48
2023-05-12T18:50:36.952Z,14.48
2023-05-12T18:53:05.999Z,11.02
2023-05-12T18:55:35.763Z,9.90
2023-05-12T18:58:05.484Z,9.30
2023-05-12T19:00:36.063Z,10.23
2023-05-12T19:03:06.261Z,11.02
2023-05-12T19:05:36.221Z,15.65
2023-05-12T19:08:05.406Z,15.60
2023-05-12T19:10:36.651Z,10.82
2023-05-12T19:13:06.772Z,10.35
2023-05-12T19:15:35.830Z,12.90
2023-05-12T19:18:04.799Z,9.05
2023-05-12T19:20:33.745Z,14.43
2023-05-12T19:23:02.073Z,13.85
2023-05-12T19:25:31.171Z,12.90
2023-05-12T19:28:00.356Z,10.80
2023-05-12T19:30:29.593Z,12.75
2023-05-12T19:32:59.378Z,13.55
2023-05-12T19:35:28.013Z,13.45
2023-05-12T19:37:58.080Z,13.68
2023-05-12T19:40:26.318Z,14.93
2023-05-12T19:42:55.360Z,18.48
2023-05-12T19:45:23.760Z,16.48
2023-05-12T19:47:52.039Z,16.88
2023-05-12T19:50:21.363Z,11.82
2023-05-12T19:52:50.833Z,20.98
2023-05-12T19:55:19.891Z,19.98
2023-05-12T19:57:49.317Z,16.00
2023-05-12T20:00:17.962Z,16.50
2023-05-12T20:02:46.569Z,21.98
2023-05-12T20:05:15.103Z,13.50
2023-05-12T20:07:43.517Z,18.77
2023-05-12T20:10:11.975Z,15.52
2023-05-12T20:12:44.983Z,18.20
2023-05-12T20:15:14.938Z,15.13
2023-05-12T20:17:43.756Z,18.80
2023-05-12T20:20:12.641Z,15.73
2023-05-12T20:22:41.277Z,14.18
2023-05-12T20:25:12.565Z,17.13
2023-05-12T20:27:40.998Z,18.13
2023-05-12T20:30:10.687Z,19.60
2023-05-12T20:32:39.148Z,20.13
2023-05-12T20:35:08.038Z,20.70
2023-05-12T20:37:36.770Z,20.05
2023-05-12T20:40:07.350Z,16.85
2023-05-12T20:42:36.072Z,19.95
2023-05-12T20:45:05.052Z,21.25
2023-05-12T20:47:35.171Z,13.10
2023-05-12T20:50:05.825Z,16.92
2023-05-12T20:52:38.533Z,16.70
2023-05-12T20:55:07.772Z,13.30
2023-05-12T20:57:36.128Z,18.13
2023-05-12T21:00:04.796Z,18.77
2023-05-12T21:02:33.048Z,18.00
2023-05-12T21:05:01.523Z,20.27
2023-05-12T21:07:31.678Z,22.10
2023-05-12T21:10:00.834Z,21.13
2023-05-12T21:12:29.437Z,23.35
2023-05-12T21:14:57.778Z,21.73
2023-05-12T21:17:26.085Z,16.10
2023-05-12T21:19:54.386Z,16.70
2023-05-12T21:22:22.869Z,16.13
2023-05-12T21:24:51.784Z,22.75
2023-05-12T21:27:19.880Z,19.02
2023-05-12T21:29:48.044Z,14.07
2023-05-12T21:32:17.025Z,17.33
2023-05-12T21:34:48.090Z,17.38
2023-05-12T21:37:17.531Z,15.57
2023-05-12T21:39:45.739Z,17.13
2023-05-12T21:42:13.829Z,19.88
2023-05-12T21:44:42.112Z,14.07
2023-05-12T21:47:10.209Z,15.77
2023-05-12T21:49:38.462Z,14.68
2023-05-12T21:52:06.712Z,18.67
2023-05-12T21:54:34.901Z,17.17
2023-05-12T21:57:03.116Z,11.63
2023-05-12T21:59:31.279Z,18.73
2023-05-12T22:02:00.365Z,18.88
2023-05-12T22:04:28.410Z,11.65
2023-05-12T22:06:56.774Z,17.50
2023-05-12T22:09:25.392Z,14.27
2023-05-12T22:11:53.694Z,16.30
2023-05-12T22:14:22.076Z,14.90
2023-05-12T22:16:50.223Z,11.70
2023-05-12T22:19:18.486Z,15.43
2023-05-12T22:21:47.090Z,17.27
2023-05-12T22:24:15.840Z,13.70
2023-05-12T22:26:43.866Z,22.02
2023-05-12T22:29:12.030Z,15.85
2023-05-12T22:31:40.130Z,15.60
2023-05-12T22:34:09.344Z,16.52
2023-05-12T22:36:38.065Z,13.93
2023-05-12T22:39:06.128Z,13.93
2023-05-12T22:41:34.147Z,17.08
2023-05-12T22:44:02.394Z,17.73
2023-05-12T22:46:30.534Z,19.85
2023-05-12T22:48:58.504Z,16.95
2023-05-12T22:51:26.892Z,18.58
2023-05-12T22:53:55.121Z,18.40
2023-05-12T22:56:23.244Z,19.67
2023-05-12T22:58:51.731Z,16.75
2023-05-12T23:01:19.739Z,16.90
2023-05-12T23:03:48.135Z,17.45
2023-05-12T23:06:16.510Z,16.50
2023-05-12T23:08:45.378Z,14.75
2023-05-12T23:11:13.336Z,17.95
2023-05-12T23:13:41.770Z,16.63
2023-05-12T23:16:09.861Z,18.15
2023-05-12T23:18:37.940Z,20.52
2023-05-12T23:21:06.273Z,15.23
2023-05-12T23:23:34.368Z,16.17
2023-05-12T23:26:02.904Z,20.27
2023-05-12T23:28:31.252Z,16.55
2023-05-12T23:30:59.370Z,16.52
2023-05-12T23:33:27.442Z,18.73
2023-05-12T23:35:55.814Z,19.25
2023-05-12T23:38:23.803Z,19.75
2023-05-12T23:40:52.395Z,16.65
2023-05-12T23:43:20.506Z,15.00
2023-05-12T23:45:48.743Z,17.85
2023-05-12T23:48:16.797Z,17.08
2023-05-12T23:50:45.182Z,17.42
2023-05-12T23:53:13.490Z,16.63
2023-05-12T23:55:41.416Z,13.90
2023-05-12T23:58:10.921Z,17.40
